sensor_id;sensor_type;location;lat;lon;timestamp;temperature;humidity
48328;DHT22;34136;51.022;7.082;2023-06-14T00:00:02;20.20;99.90
48328;DHT22;34136;51.022;7.082;2023-06-14T00:02:50;20.20;99.90
48328;DHT22;34136;51.022;7.082;2023-06-14T00:05:40;20.00;99.90
48328;DHT22;34136;51.022;7.082;2023-06-14T00:08:26;20.00;99.90
48328;DHT22;34136;51.022;7.082;2023-06-14T00:11:12;20.00;99.90
48328;DHT22;34136;51.022;7.082;2023-06-14T00:13:58;20.00;99.90
48328;DHT22;34136;51.022;7.082;2023-06-14T00:16:45;19.90;99.90
48328;DHT22;34136;51.022;7.082;2023-06-14T00:19:31;19.70;99.90
48328;DHT22;34136;51.022;7.082;2023-06-14T00:22:17;19.60;99.90
48328;DHT22;34136;51.022;7.082;2023-06-14T00:25:03;19.60;99.90
48328;DHT22;34136;51.022;7.082;2023-06-14T00:27:50;19.50;99.90
48328;DHT22;34136;51.022;7.082;2023-06-14T00:30:36;19.20;99.90
48328;DHT22;34136;51.022;7.082;2023-06-14T00:33:22;19.00;99.90
48328;DHT22;34136;51.022;7.082;2023-06-14T00:36:08;19.10;99.90
48328;DHT22;34136;51.022;7.082;2023-06-14T00:38:54;18.90;99.90
48328;DHT22;34136;51.022;7.082;2023-06-14T00:41:41;18.90;99.90
48328;DHT22;34136;51.022;7.082;2023-06-14T00:44:27;18.90;99.90
48328;DHT22;34136;51.022;7.082;2023-06-14T00:47:14;18.80;99.90
48328;DHT22;34136;51.022;7.082;2023-06-14T00:50:00;18.80;99.90
48328;DHT22;34136;51.022;7.082;2023-06-14T00:52:47;18.80;99.90
48328;DHT22;34136;51.022;7.082;2023-06-14T00:55:33;18.80;99.90
48328;DHT22;34136;51.022;7.082;2023-06-14T00:58:19;18.80;99.90
48328;DHT22;34136;51.022;7.082;2023-06-14T01:01:07;18.80;99.90
48328;DHT22;34136;51.022;7.082;2023-06-14T01:03:54;18.80;99.90
48328;DHT22;34136;51.022;7.082;2023-06-14T01:06:59;18.70;99.90
48328;DHT22;34136;51.022;7.082;2023-06-14T01:10:03;18.50;99.90
48328;DHT22;34136;51.022;7.082;2023-06-14T01:13:15;18.50;99.90
48328;DHT22;34136;51.022;7.082;2023-06-14T01:16:05;18.50;99.90
48328;DHT22;34136;51.022;7.082;2023-06-14T01:18:53;18.50;99.90
48328;DHT22;34136;51.022;7.082;2023-06-14T01:21:39;18.60;99.90
48328;DHT22;34136;51.022;7.082;2023-06-14T01:24:26;18.60;99.90
48328;DHT22;34136;51.022;7.082;2023-06-14T01:27:13;18.60;99.90
48328;DHT22;34136;51.022;7.082;2023-06-14T01:30:00;18.60;99.90
48328;DHT22;34136;51.022;7.082;2023-06-14T01:32:47;18.60;99.90
48328;DHT22;34136;51.022;7.082;2023-06-14T01:35:35;18.60;99.90
48328;DHT22;34136;51.022;7.082;2023-06-14T01:38:25;18.50;99.90
48328;DHT22;34136;51.022;7.082;2023-06-14T01:41:11;18.50;99.90
48328;DHT22;34136;51.022;7.082;2023-06-14T01:43:59;18.60;99.90
48328;DHT22;34136;51.022;7.082;2023-06-14T01:46:45;18.60;99.90
48328;DHT22;34136;51.022;7.082;2023-06-14T01:49:35;18.60;99.90
48328;DHT22;34136;51.022;7.082;2023-06-14T01:52:21;18.50;99.90
48328;DHT22;34136;51.022;7.082;2023-06-14T01:55:08;18.30;99.90
48328;DHT22;34136;51.022;7.082;2023-06-14T01:57:55;18.10;99.90
48328;DHT22;34136;51.022;7.082;2023-06-14T02:00:42;18.00;99.90
48328;DHT22;34136;51.022;7.082;2023-06-14T02:03:28;18.10;99.90
48328;DHT22;34136;51.022;7.082;2023-06-14T02:06:14;18.00;99.90
48328;DHT22;34136;51.022;7.082;2023-06-14T02:09:01;18.00;99.90
48328;DHT22;34136;51.022;7.082;2023-06-14T02:11:48;18.00;99.90
48328;DHT22;34136;51.022;7.082;2023-06-14T02:14:34;17.90;99.90
48328;DHT22;34136;51.022;7.082;2023-06-14T02:17:20;17.90;99.90
48328;DHT22;34136;51.022;7.082;2023-06-14T02:20:07;17.80;99.90
48328;DHT22;34136;51.022;7.082;2023-06-14T02:22:54;17.80;99.90
48328;DHT22;34136;51.022;7.082;2023-06-14T02:25:40;17.70;99.90
48328;DHT22;34136;51.022;7.082;2023-06-14T02:28:27;17.80;99.90
48328;DHT22;34136;51.022;7.082;2023-06-14T02:31:14;17.80;99.90
48328;DHT22;34136;51.022;7.082;2023-06-14T02:34:00;17.80;99.90
48328;DHT22;34136;51.022;7.082;2023-06-14T02:36:46;17.60;99.90
48328;DHT22;34136;51.022;7.082;2023-06-14T02:39:33;17.50;99.90
48328;DHT22;34136;51.022;7.082;2023-06-14T02:42:19;17.60;99.90
48328;DHT22;34136;51.022;7.082;2023-06-14T02:45:06;17.60;99.90
48328;DHT22;34136;51.022;7.082;2023-06-14T02:47:53;17.70;99.90
48328;DHT22;34136;51.022;7.082;2023-06-14T02:50:39;17.70;99.90
48328;DHT22;34136;51.022;7.082;2023-06-14T02:53:25;17.70;99.90
48328;DHT22;34136;51.022;7.082;2023-06-14T02:56:12;17.80;99.90
48328;DHT22;34136;51.022;7.082;2023-06-14T02:58:58;17.80;99.90
48328;DHT22;34136;51.022;7.082;2023-06-14T03:01:45;17.90;99.90
48328;DHT22;34136;51.022;7.082;2023-06-14T03:04:34;17.90;99.90
48328;DHT22;34136;51.022;7.082;2023-06-14T03:07:20;17.70;99.90
48328;DHT22;34136;51.022;7.082;2023-06-14T03:10:09;17.60;99.90
48328;DHT22;34136;51.022;7.082;2023-06-14T03:12:55;17.60;99.90
48328;DHT22;34136;51.022;7.082;2023-06-14T03:15:42;17.60;99.90
48328;DHT22;34136;51.022;7.082;2023-06-14T03:18:32;17.50;99.90
48328;DHT22;34136;51.022;7.082;2023-06-14T03:21:19;17.40;99.90
48328;DHT22;34136;51.022;7.082;2023-06-14T03:24:06;17.10;99.90
48328;DHT22;34136;51.022;7.082;2023-06-14T03:26:54;17.00;99.90
48328;DHT22;34136;51.022;7.082;2023-06-14T03:29:41;16.90;99.90
48328;DHT22;34136;51.022;7.082;2023-06-14T03:32:27;16.50;99.90
48328;DHT22;34136;51.022;7.082;2023-06-14T03:35:14;16.20;99.90
48328;DHT22;34136;51.022;7.082;2023-06-14T03:38:01;16.20;99.90
48328;DHT22;34136;51.022;7.082;2023-06-14T03:40:48;16.20;99.90
48328;DHT22;34136;51.022;7.082;2023-06-14T03:43:34;16.20;99.90
48328;DHT22;34136;51.022;7.082;2023-06-14T03:46:21;16.40;99.90
48328;DHT22;34136;51.022;7.082;2023-06-14T03:49:08;16.50;99.90
48328;DHT22;34136;51.022;7.082;2023-06-14T03:51:54;16.50;99.90
48328;DHT22;34136;51.022;7.082;2023-06-14T03:54:43;16.50;99.90
48328;DHT22;34136;51.022;7.082;2023-06-14T03:57:30;16.50;99.90
48328;DHT22;34136;51.022;7.082;2023-06-14T04:00:17;16.60;99.90
48328;DHT22;34136;51.022;7.082;2023-06-14T04:03:04;16.50;99.90
48328;DHT22;34136;51.022;7.082;2023-06-14T04:05:50;16.40;99.90
48328;DHT22;34136;51.022;7.082;2023-06-14T04:08:38;16.30;99.90
48328;DHT22;34136;51.022;7.082;2023-06-14T04:11:24;16.40;99.90
48328;DHT22;34136;51.022;7.082;2023-06-14T04:14:10;16.30;99.90
48328;DHT22;34136;51.022;7.082;2023-06-14T04:16:57;16.30;99.90
48328;DHT22;34136;51.022;7.082;2023-06-14T04:19:43;16.30;99.90
48328;DHT22;34136;51.022;7.082;2023-06-14T04:22:30;16.30;99.90
48328;DHT22;34136;51.022;7.082;2023-06-14T04:25:18;16.30;99.90
48328;DHT22;34136;51.022;7.082;2023-06-14T04:28:06;16.30;99.90
48328;DHT22;34136;51.022;7.082;2023-06-14T04:30:53;16.20;99.90
48328;DHT22;34136;51.022;7.082;2023-06-14T04:33:39;16.30;99.90
48328;DHT22;34136;51.022;7.082;2023-06-14T04:36:25;16.30;99.90
48328;DHT22;34136;51.022;7.082;2023-06-14T04:39:11;16.20;99.90
48328;DHT22;34136;51.022;7.082;2023-06-14T04:41:58;16.20;99.90
48328;DHT22;34136;51.022;7.082;2023-06-14T04:44:45;16.40;99.90
48328;DHT22;34136;51.022;7.082;2023-06-14T04:47:32;16.50;99.90
48328;DHT22;34136;51.022;7.082;2023-06-14T04:50:18;16.50;99.90
48328;DHT22;34136;51.022;7.082;2023-06-14T04:53:05;16.80;99.90
48328;DHT22;34136;51.022;7.082;2023-06-14T04:55:51;17.20;99.90
48328;DHT22;34136;51.022;7.082;2023-06-14T04:58:39;17.40;99.90
48328;DHT22;34136;51.022;7.082;2023-06-14T05:01:26;17.30;99.90
48328;DHT22;34136;51.022;7.082;2023-06-14T05:04:16;17.30;99.90
48328;DHT22;34136;51.022;7.082;2023-06-14T05:07:02;17.60;99.90
48328;DHT22;34136;51.022;7.082;2023-06-14T05:09:49;17.70;99.90
48328;DHT22;34136;51.022;7.082;2023-06-14T05:12:35;17.90;99.90
48328;DHT22;34136;51.022;7.082;2023-06-14T05:15:23;18.00;99.90
48328;DHT22;34136;51.022;7.082;2023-06-14T05:18:10;18.10;99.90
48328;DHT22;34136;51.022;7.082;2023-06-14T05:20:56;18.40;99.90
48328;DHT22;34136;51.022;7.082;2023-06-14T05:23:43;18.50;99.90
48328;DHT22;34136;51.022;7.082;2023-06-14T05:26:30;18.80;99.90
48328;DHT22;34136;51.022;7.082;2023-06-14T05:29:16;19.20;99.90
48328;DHT22;34136;51.022;7.082;2023-06-14T05:32:02;19.30;99.90
48328;DHT22;34136;51.022;7.082;2023-06-14T05:34:49;19.60;99.90
48328;DHT22;34136;51.022;7.082;2023-06-14T05:37:35;19.80;99.90
48328;DHT22;34136;51.022;7.082;2023-06-14T05:40:21;20.10;99.90
48328;DHT22;34136;51.022;7.082;2023-06-14T05:43:08;20.20;99.90
48328;DHT22;34136;51.022;7.082;2023-06-14T05:45:54;20.50;99.90
48328;DHT22;34136;51.022;7.082;2023-06-14T05:48:41;20.70;99.90
48328;DHT22;34136;51.022;7.082;2023-06-14T05:51:27;20.90;99.90
48328;DHT22;34136;51.022;7.082;2023-06-14T05:54:13;21.20;99.90
48328;DHT22;34136;51.022;7.082;2023-06-14T05:57:00;21.50;99.90
48328;DHT22;34136;51.022;7.082;2023-06-14T05:59:47;21.60;99.90
48328;DHT22;34136;51.022;7.082;2023-06-14T06:02:33;21.60;99.90
48328;DHT22;34136;51.022;7.082;2023-06-14T06:05:19;21.80;99.90
48328;DHT22;34136;51.022;7.082;2023-06-14T06:08:06;22.10;99.90
48328;DHT22;34136;51.022;7.082;2023-06-14T06:10:52;22.10;99.90
48328;DHT22;34136;51.022;7.082;2023-06-14T06:13:39;22.00;99.90
48328;DHT22;34136;51.022;7.082;2023-06-14T06:16:25;22.10;99.90
48328;DHT22;34136;51.022;7.082;2023-06-14T06:19:11;22.10;99.90
48328;DHT22;34136;51.022;7.082;2023-06-14T06:21:57;22.20;99.90
48328;DHT22;34136;51.022;7.082;2023-06-14T06:24:43;22.50;99.90
48328;DHT22;34136;51.022;7.082;2023-06-14T06:27:30;22.60;99.90
48328;DHT22;34136;51.022;7.082;2023-06-14T06:30:16;22.60;99.90
48328;DHT22;34136;51.022;7.082;2023-06-14T06:33:03;22.70;99.90
48328;DHT22;34136;51.022;7.082;2023-06-14T06:35:49;23.10;99.90
48328;DHT22;34136;51.022;7.082;2023-06-14T06:38:35;23.50;99.90
48328;DHT22;34136;51.022;7.082;2023-06-14T06:41:22;23.80;99.90
48328;DHT22;34136;51.022;7.082;2023-06-14T06:44:08;23.60;99.90
48328;DHT22;34136;51.022;7.082;2023-06-14T06:46:54;23.80;99.90
48328;DHT22;34136;51.022;7.082;2023-06-14T06:49:41;23.40;99.90
48328;DHT22;34136;51.022;7.082;2023-06-14T06:52:27;23.80;99.90
48328;DHT22;34136;51.022;7.082;2023-06-14T06:55:13;23.80;99.90
48328;DHT22;34136;51.022;7.082;2023-06-14T06:57:59;23.90;99.90
48328;DHT22;34136;51.022;7.082;2023-06-14T07:00:45;24.00;99.90
48328;DHT22;34136;51.022;7.082;2023-06-14T07:03:32;24.20;99.90
48328;DHT22;34136;51.022;7.082;2023-06-14T07:06:18;24.30;99.90
48328;DHT22;34136;51.022;7.082;2023-06-14T07:09:05;24.40;99.90
48328;DHT22;34136;51.022;7.082;2023-06-14T07:11:51;24.30;99.90
48328;DHT22;34136;51.022;7.082;2023-06-14T07:14:37;24.30;99.90
48328;DHT22;34136;51.022;7.082;2023-06-14T07:17:24;24.10;99.90
48328;DHT22;34136;51.022;7.082;2023-06-14T07:20:11;24.30;99.90
48328;DHT22;34136;51.022;7.082;2023-06-14T07:22:57;24.50;99.90
48328;DHT22;34136;51.022;7.082;2023-06-14T07:25:43;24.50;99.90
48328;DHT22;34136;51.022;7.082;2023-06-14T07:28:30;24.60;99.90
48328;DHT22;34136;51.022;7.082;2023-06-14T07:31:16;24.60;99.90
48328;DHT22;34136;51.022;7.082;2023-06-14T07:34:02;24.60;99.90
48328;DHT22;34136;51.022;7.082;2023-06-14T07:36:49;24.80;99.90
48328;DHT22;34136;51.022;7.082;2023-06-14T07:39:35;24.80;99.90
48328;DHT22;34136;51.022;7.082;2023-06-14T07:42:22;25.20;99.90
48328;DHT22;34136;51.022;7.082;2023-06-14T07:45:09;25.20;99.90
48328;DHT22;34136;51.022;7.082;2023-06-14T07:47:55;25.30;99.90
48328;DHT22;34136;51.022;7.082;2023-06-14T07:50:41;25.10;99.90
48328;DHT22;34136;51.022;7.082;2023-06-14T07:53:28;25.30;99.90
48328;DHT22;34136;51.022;7.082;2023-06-14T07:56:14;25.50;99.90
48328;DHT22;34136;51.022;7.082;2023-06-14T07:59:01;25.70;99.90
48328;DHT22;34136;51.022;7.082;2023-06-14T08:01:47;25.90;99.90
48328;DHT22;34136;51.022;7.082;2023-06-14T08:04:34;25.70;99.90
48328;DHT22;34136;51.022;7.082;2023-06-14T08:07:20;25.60;99.90
48328;DHT22;34136;51.022;7.082;2023-06-14T08:10:07;25.90;99.90
48328;DHT22;34136;51.022;7.082;2023-06-14T08:12:53;26.10;99.90
48328;DHT22;34136;51.022;7.082;2023-06-14T08:15:40;26.20;99.90
48328;DHT22;34136;51.022;7.082;2023-06-14T08:18:26;26.30;99.90
48328;DHT22;34136;51.022;7.082;2023-06-14T08:21:12;25.90;99.90
48328;DHT22;34136;51.022;7.082;2023-06-14T08:23:59;26.00;99.90
48328;DHT22;34136;51.022;7.082;2023-06-14T08:26:45;26.00;99.90
48328;DHT22;34136;51.022;7.082;2023-06-14T08:29:31;25.90;99.90
48328;DHT22;34136;51.022;7.082;2023-06-14T08:32:18;25.60;99.90
48328;DHT22;34136;51.022;7.082;2023-06-14T08:35:04;25.60;99.90
48328;DHT22;34136;51.022;7.082;2023-06-14T08:37:50;25.80;99.90
48328;DHT22;34136;51.022;7.082;2023-06-14T08:40:37;26.30;99.90
48328;DHT22;34136;51.022;7.082;2023-06-14T08:43:24;26.60;99.90
48328;DHT22;34136;51.022;7.082;2023-06-14T08:46:11;26.50;99.90
48328;DHT22;34136;51.022;7.082;2023-06-14T08:48:58;26.70;99.90
48328;DHT22;34136;51.022;7.082;2023-06-14T08:51:45;26.90;99.90
48328;DHT22;34136;51.022;7.082;2023-06-14T08:54:32;27.00;99.90
48328;DHT22;34136;51.022;7.082;2023-06-14T08:57:20;27.10;99.90
48328;DHT22;34136;51.022;7.082;2023-06-14T09:00:07;26.90;99.90
48328;DHT22;34136;51.022;7.082;2023-06-14T09:02:54;26.40;99.90
48328;DHT22;34136;51.022;7.082;2023-06-14T09:05:41;26.40;99.90
48328;DHT22;34136;51.022;7.082;2023-06-14T09:08:27;26.00;99.90
48328;DHT22;34136;51.022;7.082;2023-06-14T09:11:15;26.30;99.90
48328;DHT22;34136;51.022;7.082;2023-06-14T09:14:02;26.80;99.90
48328;DHT22;34136;51.022;7.082;2023-06-14T09:16:52;27.30;99.90
48328;DHT22;34136;51.022;7.082;2023-06-14T09:19:39;27.10;99.90
48328;DHT22;34136;51.022;7.082;2023-06-14T09:22:26;27.70;99.90
48328;DHT22;34136;51.022;7.082;2023-06-14T09:25:15;28.20;99.90
48328;DHT22;34136;51.022;7.082;2023-06-14T09:28:01;27.80;99.90
48328;DHT22;34136;51.022;7.082;2023-06-14T09:30:48;27.50;99.90
48328;DHT22;34136;51.022;7.082;2023-06-14T09:33:34;27.40;99.90
48328;DHT22;34136;51.022;7.082;2023-06-14T09:36:22;27.00;99.90
48328;DHT22;34136;51.022;7.082;2023-06-14T09:39:08;26.80;99.90
48328;DHT22;34136;51.022;7.082;2023-06-14T09:41:55;26.70;99.90
48328;DHT22;34136;51.022;7.082;2023-06-14T09:44:41;27.20;99.90
48328;DHT22;34136;51.022;7.082;2023-06-14T09:47:28;27.60;99.90
48328;DHT22;34136;51.022;7.082;2023-06-14T09:50:14;27.30;99.90
48328;DHT22;34136;51.022;7.082;2023-06-14T09:53:07;27.10;99.90
48328;DHT22;34136;51.022;7.082;2023-06-14T09:55:54;27.30;99.90
48328;DHT22;34136;51.022;7.082;2023-06-14T09:58:43;27.80;99.90
48328;DHT22;34136;51.022;7.082;2023-06-14T10:01:31;28.20;99.90
48328;DHT22;34136;51.022;7.082;2023-06-14T10:04:21;27.90;99.90
48328;DHT22;34136;51.022;7.082;2023-06-14T10:07:08;27.80;99.90
48328;DHT22;34136;51.022;7.082;2023-06-14T10:09:55;28.10;99.90
48328;DHT22;34136;51.022;7.082;2023-06-14T10:12:42;27.90;99.90
48328;DHT22;34136;51.022;7.082;2023-06-14T10:15:35;27.90;99.90
48328;DHT22;34136;51.022;7.082;2023-06-14T10:24:45;28.30;99.90
48328;DHT22;34136;51.022;7.082;2023-06-14T10:27:31;28.20;99.90
48328;DHT22;34136;51.022;7.082;2023-06-14T10:30:17;28.10;99.90
48328;DHT22;34136;51.022;7.082;2023-06-14T10:33:14;28.20;99.90
48328;DHT22;34136;51.022;7.082;2023-06-14T10:36:27;28.00;99.90
48328;DHT22;34136;51.022;7.082;2023-06-14T10:39:17;28.10;99.90
48328;DHT22;34136;51.022;7.082;2023-06-14T10:42:05;28.20;99.90
48328;DHT22;34136;51.022;7.082;2023-06-14T10:44:53;28.20;99.90
48328;DHT22;34136;51.022;7.082;2023-06-14T10:47:40;28.50;99.90
48328;DHT22;34136;51.022;7.082;2023-06-14T10:50:29;28.50;99.90
48328;DHT22;34136;51.022;7.082;2023-06-14T10:53:22;28.40;99.90
48328;DHT22;34136;51.022;7.082;2023-06-14T10:56:09;28.30;99.90
48328;DHT22;34136;51.022;7.082;2023-06-14T10:58:57;28.10;99.90
48328;DHT22;34136;51.022;7.082;2023-06-14T11:02:20;28.00;99.90
48328;DHT22;34136;51.022;7.082;2023-06-14T11:05:25;28.20;99.90
48328;DHT22;34136;51.022;7.082;2023-06-14T11:11:18;27.80;99.90
48328;DHT22;34136;51.022;7.082;2023-06-14T11:14:07;27.70;99.90
48328;DHT22;34136;51.022;7.082;2023-06-14T11:16:53;28.40;99.90
48328;DHT22;34136;51.022;7.082;2023-06-14T11:19:40;28.50;99.90
48328;DHT22;34136;51.022;7.082;2023-06-14T11:22:27;28.50;99.90
48328;DHT22;34136;51.022;7.082;2023-06-14T11:25:13;28.70;99.90
48328;DHT22;34136;51.022;7.082;2023-06-14T11:27:59;28.80;99.90
48328;DHT22;34136;51.022;7.082;2023-06-14T11:30:46;28.60;99.90
48328;DHT22;34136;51.022;7.082;2023-06-14T11:33:32;28.60;99.90
48328;DHT22;34136;51.022;7.082;2023-06-14T11:36:19;28.50;99.90
48328;DHT22;34136;51.022;7.082;2023-06-14T11:39:06;28.80;99.90
48328;DHT22;34136;51.022;7.082;2023-06-14T11:41:54;29.10;99.90
48328;DHT22;34136;51.022;7.082;2023-06-14T11:44:40;28.90;99.90
48328;DHT22;34136;51.022;7.082;2023-06-14T11:47:32;28.80;99.90
48328;DHT22;34136;51.022;7.082;2023-06-14T11:50:18;29.10;99.90
48328;DHT22;34136;51.022;7.082;2023-06-14T11:53:05;29.10;99.90
48328;DHT22;34136;51.022;7.082;2023-06-14T11:55:51;28.90;99.90
48328;DHT22;34136;51.022;7.082;2023-06-14T11:58:38;28.80;99.90
48328;DHT22;34136;51.022;7.082;2023-06-14T12:01:24;28.50;99.90
48328;DHT22;34136;51.022;7.082;2023-06-14T12:04:10;28.50;99.90
48328;DHT22;34136;51.022;7.082;2023-06-14T12:06:56;28.90;99.90
48328;DHT22;34136;51.022;7.082;2023-06-14T12:10:04;28.60;99.90
48328;DHT22;34136;51.022;7.082;2023-06-14T12:12:50;29.00;99.90
48328;DHT22;34136;51.022;7.082;2023-06-14T12:15:37;29.30;99.90
48328;DHT22;34136;51.022;7.082;2023-06-14T12:18:33;29.20;99.90
48328;DHT22;34136;51.022;7.082;2023-06-14T12:21:23;29.30;99.90
48328;DHT22;34136;51.022;7.082;2023-06-14T12:24:09;29.50;99.90
48328;DHT22;34136;51.022;7.082;2023-06-14T12:26:58;29.50;99.90
48328;DHT22;34136;51.022;7.082;2023-06-14T12:29:44;29.10;99.90
48328;DHT22;34136;51.022;7.082;2023-06-14T12:32:30;29.40;99.90
48328;DHT22;34136;51.022;7.082;2023-06-14T12:35:17;29.40;99.90
48328;DHT22;34136;51.022;7.082;2023-06-14T12:38:04;29.50;99.90
48328;DHT22;34136;51.022;7.082;2023-06-14T12:40:50;29.70;99.90
48328;DHT22;34136;51.022;7.082;2023-06-14T12:43:37;29.60;99.90
48328;DHT22;34136;51.022;7.082;2023-06-14T12:46:23;28.90;99.90
48328;DHT22;34136;51.022;7.082;2023-06-14T12:49:11;29.10;99.90
48328;DHT22;34136;51.022;7.082;2023-06-14T12:51:57;29.20;99.90
48328;DHT22;34136;51.022;7.082;2023-06-14T12:54:44;29.20;99.90
48328;DHT22;34136;51.022;7.082;2023-06-14T12:57:30;29.30;99.90
48328;DHT22;34136;51.022;7.082;2023-06-14T13:00:17;29.60;99.90
48328;DHT22;34136;51.022;7.082;2023-06-14T13:03:04;29.60;99.90
48328;DHT22;34136;51.022;7.082;2023-06-14T13:05:50;29.60;99.90
48328;DHT22;34136;51.022;7.082;2023-06-14T13:08:37;29.40;99.90
48328;DHT22;34136;51.022;7.082;2023-06-14T13:11:23;29.10;99.90
48328;DHT22;34136;51.022;7.082;2023-06-14T13:14:09;29.10;99.90
48328;DHT22;34136;51.022;7.082;2023-06-14T13:16:55;29.70;99.90
48328;DHT22;34136;51.022;7.082;2023-06-14T13:19:42;29.60;99.90
48328;DHT22;34136;51.022;7.082;2023-06-14T13:22:29;29.90;99.90
48328;DHT22;34136;51.022;7.082;2023-06-14T13:25:15;29.40;99.90
48328;DHT22;34136;51.022;7.082;2023-06-14T13:28:01;29.10;99.90
48328;DHT22;34136;51.022;7.082;2023-06-14T13:30:48;28.70;99.90
48328;DHT22;34136;51.022;7.082;2023-06-14T13:33:34;28.40;99.90
48328;DHT22;34136;51.022;7.082;2023-06-14T13:36:21;28.50;99.90
48328;DHT22;34136;51.022;7.082;2023-06-14T13:39:08;28.60;99.90
48328;DHT22;34136;51.022;7.082;2023-06-14T13:41:54;28.40;99.90
48328;DHT22;34136;51.022;7.082;2023-06-14T13:44:40;28.40;99.90
48328;DHT22;34136;51.022;7.082;2023-06-14T13:47:27;28.60;99.90
48328;DHT22;34136;51.022;7.082;2023-06-14T13:50:13;28.60;99.90
48328;DHT22;34136;51.022;7.082;2023-06-14T13:53:00;28.30;99.90
48328;DHT22;34136;51.022;7.082;2023-06-14T13:55:46;28.00;99.90
48328;DHT22;34136;51.022;7.082;2023-06-14T13:58:33;27.90;99.90
48328;DHT22;34136;51.022;7.082;2023-06-14T14:01:19;28.20;99.90
48328;DHT22;34136;51.022;7.082;2023-06-14T14:04:05;28.50;99.90
48328;DHT22;34136;51.022;7.082;2023-06-14T14:06:51;28.50;99.90
48328;DHT22;34136;51.022;7.082;2023-06-14T14:09:38;28.60;99.90
48328;DHT22;34136;51.022;7.082;2023-06-14T14:12:24;28.30;99.90
48328;DHT22;34136;51.022;7.082;2023-06-14T14:15:10;28.40;99.90
48328;DHT22;34136;51.022;7.082;2023-06-14T14:17:56;28.80;99.90
48328;DHT22;34136;51.022;7.082;2023-06-14T14:20:42;29.20;99.90
48328;DHT22;34136;51.022;7.082;2023-06-14T14:23:29;29.20;99.90
48328;DHT22;34136;51.022;7.082;2023-06-14T14:26:16;28.90;99.90
48328;DHT22;34136;51.022;7.082;2023-06-14T14:29:02;29.10;99.90
48328;DHT22;34136;51.022;7.082;2023-06-14T14:31:48;29.20;99.90
48328;DHT22;34136;51.022;7.082;2023-06-14T14:34:34;29.10;99.90
48328;DHT22;34136;51.022;7.082;2023-06-14T14:37:21;29.30;99.90
48328;DHT22;34136;51.022;7.082;2023-06-14T14:40:08;29.40;99.90
48328;DHT22;34136;51.022;7.082;2023-06-14T14:42:54;29.10;99.90
48328;DHT22;34136;51.022;7.082;2023-06-14T14:45:40;29.20;99.90
48328;DHT22;34136;51.022;7.082;2023-06-14T14:48:26;29.10;99.90
48328;DHT22;34136;51.022;7.082;2023-06-14T14:51:13;29.10;99.90
48328;DHT22;34136;51.022;7.082;2023-06-14T14:53:59;29.10;99.90
48328;DHT22;34136;51.022;7.082;2023-06-14T14:56:46;29.10;99.90
48328;DHT22;34136;51.022;7.082;2023-06-14T14:59:32;29.30;99.90
48328;DHT22;34136;51.022;7.082;2023-06-14T15:02:19;29.40;99.90
48328;DHT22;34136;51.022;7.082;2023-06-14T15:05:05;29.10;99.90
48328;DHT22;34136;51.022;7.082;2023-06-14T15:07:52;28.70;99.90
48328;DHT22;34136;51.022;7.082;2023-06-14T15:10:38;28.20;99.90
48328;DHT22;34136;51.022;7.082;2023-06-14T15:13:25;27.90;99.90
48328;DHT22;34136;51.022;7.082;2023-06-14T15:16:11;27.90;99.90
48328;DHT22;34136;51.022;7.082;2023-06-14T15:18:57;28.00;99.90
48328;DHT22;34136;51.022;7.082;2023-06-14T15:21:44;28.40;99.90
48328;DHT22;34136;51.022;7.082;2023-06-14T15:24:30;28.50;99.90
48328;DHT22;34136;51.022;7.082;2023-06-14T15:27:17;28.80;99.90
48328;DHT22;34136;51.022;7.082;2023-06-14T15:30:03;28.50;99.90
48328;DHT22;34136;51.022;7.082;2023-06-14T15:32:50;28.50;99.90
48328;DHT22;34136;51.022;7.082;2023-06-14T15:35:36;28.20;99.90
48328;DHT22;34136;51.022;7.082;2023-06-14T15:38:23;28.20;99.90
48328;DHT22;34136;51.022;7.082;2023-06-14T15:41:09;28.20;99.90
48328;DHT22;34136;51.022;7.082;2023-06-14T15:43:55;28.20;99.90
48328;DHT22;34136;51.022;7.082;2023-06-14T15:46:42;28.10;99.90
48328;DHT22;34136;51.022;7.082;2023-06-14T15:49:29;27.80;99.90
48328;DHT22;34136;51.022;7.082;2023-06-14T15:52:15;28.10;99.90
48328;DHT22;34136;51.022;7.082;2023-06-14T15:55:02;28.40;99.90
48328;DHT22;34136;51.022;7.082;2023-06-14T15:57:48;28.30;99.90
48328;DHT22;34136;51.022;7.082;2023-06-14T16:00:34;28.00;99.90
48328;DHT22;34136;51.022;7.082;2023-06-14T16:03:20;28.20;99.90
48328;DHT22;34136;51.022;7.082;2023-06-14T16:06:06;28.30;99.90
48328;DHT22;34136;51.022;7.082;2023-06-14T16:08:53;28.10;99.90
48328;DHT22;34136;51.022;7.082;2023-06-14T16:11:39;27.80;99.90
48328;DHT22;34136;51.022;7.082;2023-06-14T16:14:25;28.00;99.90
48328;DHT22;34136;51.022;7.082;2023-06-14T16:17:12;27.70;99.90
48328;DHT22;34136;51.022;7.082;2023-06-14T16:19:58;27.90;99.90
48328;DHT22;34136;51.022;7.082;2023-06-14T16:22:44;28.00;99.90
48328;DHT22;34136;51.022;7.082;2023-06-14T16:25:30;27.90;99.90
48328;DHT22;34136;51.022;7.082;2023-06-14T16:28:16;28.10;99.90
48328;DHT22;34136;51.022;7.082;2023-06-14T16:31:03;28.00;99.90
48328;DHT22;34136;51.022;7.082;2023-06-14T16:33:49;28.10;99.90
48328;DHT22;34136;51.022;7.082;2023-06-14T16:36:35;27.90;99.90
48328;DHT22;34136;51.022;7.082;2023-06-14T16:39:21;28.10;99.90
48328;DHT22;34136;51.022;7.082;2023-06-14T16:42:07;27.90;99.90
48328;DHT22;34136;51.022;7.082;2023-06-14T16:44:54;27.90;99.90
48328;DHT22;34136;51.022;7.082;2023-06-14T16:47:40;27.80;99.90
48328;DHT22;34136;51.022;7.082;2023-06-14T16:50:26;27.60;99.90
48328;DHT22;34136;51.022;7.082;2023-06-14T16:53:13;27.50;99.90
48328;DHT22;34136;51.022;7.082;2023-06-14T16:55:59;27.60;99.90
48328;DHT22;34136;51.022;7.082;2023-06-14T16:58:46;27.60;99.90
48328;DHT22;34136;51.022;7.082;2023-06-14T17:01:32;27.40;99.90
48328;DHT22;34136;51.022;7.082;2023-06-14T17:04:18;27.50;99.90
48328;DHT22;34136;51.022;7.082;2023-06-14T17:07:04;27.50;99.90
48328;DHT22;34136;51.022;7.082;2023-06-14T17:09:51;27.20;99.90
48328;DHT22;34136;51.022;7.082;2023-06-14T17:12:37;27.10;99.90
48328;DHT22;34136;51.022;7.082;2023-06-14T17:15:24;26.90;99.90
48328;DHT22;34136;51.022;7.082;2023-06-14T17:18:11;27.20;99.90
48328;DHT22;34136;51.022;7.082;2023-06-14T17:20:57;27.30;99.90
48328;DHT22;34136;51.022;7.082;2023-06-14T17:23:43;27.30;99.90
48328;DHT22;34136;51.022;7.082;2023-06-14T17:26:29;27.10;99.90
48328;DHT22;34136;51.022;7.082;2023-06-14T17:29:17;26.90;99.90
48328;DHT22;34136;51.022;7.082;2023-06-14T17:32:03;26.80;99.90
48328;DHT22;34136;51.022;7.082;2023-06-14T17:34:50;26.70;99.90
48328;DHT22;34136;51.022;7.082;2023-06-14T17:37:36;26.50;99.90
48328;DHT22;34136;51.022;7.082;2023-06-14T17:40:22;26.50;99.90
48328;DHT22;34136;51.022;7.082;2023-06-14T17:43:08;26.60;99.90